Time;durP1;ratioP1;P1;durP2;ratioP2;P2;SDS_P1;SDS_P2;PMS_P1;PMS_P2;Temp;Humidity;BMP_temperature;BMP_pressure;BME280_temperature;BME280_humidity;BME280_pressure;Samples;Min_cycle;Max_cycle;Signal;HPM_P1;HPM_P2
2023/01/23 00:01:05;;;;;;;8.48;2.85;;;;;;;;;;20996577;28;20094;-63
2023/01/23 00:11:09;;;;;;;5.93;3.10;;;;;;;;;;20996391;28;20484;-61
2023/01/23 00:21:14;;;;;;;5.32;2.97;;;;;;;;;;20996221;28;20044;-61
2023/01/23 00:31:18;;;;;;;12.82;5.07;;;;;;;;;;20996233;28;20403;-61
2023/01/23 00:41:20;;;;;;;11.63;5.15;;;;;;;;;;21007402;28;20135;-63
2023/01/23 00:51:22;;;;;;;7.82;3.58;;;;;;;;;;21011358;28;20492;-61
2023/01/23 01:01:25;;;;;;;9.50;4.53;;;;;;;;;;21010203;28;20048;-62
2023/01/23 01:11:27;;;;;;;12.02;4.60;;;;;;;;;;21009102;28;20048;-61
2023/01/23 01:21:30;;;;;;;8.50;3.85;;;;;;;;;;21009083;28;20097;-62
2023/01/23 01:31:33;;;;;;;8.55;5.05;;;;;;;;;;21009871;28;20435;-66
2023/01/23 01:41:36;;;;;;;8.30;3.80;;;;;;;;;;21007347;28;20061;-65
2023/01/23 01:51:54;;;;;;;10.18;4.80;;;;;;;;;;21005218;28;20055;-66
2023/01/23 02:02:03;;;;;;;6.65;3.67;;;;;;;;;;21005382;28;20048;-65
2023/01/23 02:12:05;;;;;;;10.07;4.18;;;;;;;;;;21004879;28;20505;-62
2023/01/23 02:22:16;;;;;;;11.30;4.40;;;;;;;;;;21003666;28;20070;-62
2023/01/23 02:32:23;;;;;;;11.23;4.95;;;;;;;;;;21003416;28;20048;-64
2023/01/23 02:42:35;;;;;;;10.48;5.13;;;;;;;;;;21001824;28;20056;-66
2023/01/23 02:52:46;;;;;;;12.85;4.93;;;;;;;;;;21001417;28;20056;-67
2023/01/23 03:02:59;;;;;;;18.65;6.70;;;;;;;;;;21000649;28;20052;-62
2023/01/23 03:13:10;;;;;;;16.80;7.40;;;;;;;;;;20999051;28;20056;-63
2023/01/23 03:23:15;;;;;;;10.30;5.43;;;;;;;;;;20998938;28;20178;-63
2023/01/23 03:33:19;;;;;;;10.40;4.82;;;;;;;;;;20998303;28;20051;-62
2023/01/23 03:43:23;;;;;;;16.52;5.15;;;;;;;;;;20997204;28;20139;-63
2023/01/23 03:53:25;;;;;;;13.35;4.57;;;;;;;;;;20998091;28;20420;-62
2023/01/23 04:03:29;;;;;;;13.30;4.97;;;;;;;;;;20998661;28;20055;-67
2023/01/23 04:13:31;;;;;;;13.63;4.97;;;;;;;;;;20998869;28;20477;-61
2023/01/23 04:23:34;;;;;;;16.58;3.67;;;;;;;;;;20997736;28;20413;-64
2023/01/23 04:33:36;;;;;;;8.25;3.40;;;;;;;;;;20995723;28;20055;-63
2023/01/23 04:43:38;;;;;;;8.73;4.05;;;;;;;;;;20996215;28;20057;-64
2023/01/23 04:53:40;;;;;;;8.57;4.07;;;;;;;;;;20994468;28;20095;-62
2023/01/23 05:03:44;;;;;;;8.75;3.72;;;;;;;;;;20994592;28;20109;-61
2023/01/23 05:13:46;;;;;;;13.07;4.50;;;;;;;;;;20993884;28;20064;-62
2023/01/23 05:23:49;;;;;;;10.05;4.03;;;;;;;;;;21000594;28;20382;-61
2023/01/23 05:33:52;;;;;;;15.27;4.38;;;;;;;;;;21008326;28;20048;-61
2023/01/23 05:43:54;;;;;;;11.55;4.57;;;;;;;;;;21006640;28;20061;-61
2023/01/23 05:53:57;;;;;;;14.98;4.07;;;;;;;;;;21007296;28;20516;-61
2023/01/23 06:04:00;;;;;;;9.82;4.25;;;;;;;;;;21005243;28;20052;-61
2023/01/23 06:14:02;;;;;;;7.45;3.60;;;;;;;;;;21004359;28;20132;-62
2023/01/23 06:24:05;;;;;;;10.30;3.22;;;;;;;;;;21002972;28;20150;-61
2023/01/23 06:34:07;;;;;;;12.57;3.92;;;;;;;;;;21002091;28;20102;-61
2023/01/23 06:44:11;;;;;;;4.75;2.67;;;;;;;;;;21000655;28;20381;-60
2023/01/23 06:54:12;;;;;;;8.60;3.25;;;;;;;;;;21001280;28;20072;-60
2023/01/23 07:04:14;;;;;;;13.30;3.22;;;;;;;;;;21000661;28;20059;-62
2023/01/23 07:14:17;;;;;;;5.47;2.88;;;;;;;;;;21000338;28;20048;-61
2023/01/23 07:24:19;;;;;;;7.57;3.50;;;;;;;;;;20998413;28;20049;-60
2023/01/23 07:34:21;;;;;;;8.18;2.95;;;;;;;;;;20998362;28;20051;-60
2023/01/23 07:44:24;;;;;;;6.95;2.70;;;;;;;;;;20995577;28;20405;-61
2023/01/23 07:54:26;;;;;;;8.52;3.83;;;;;;;;;;20996786;28;20485;-61
2023/01/23 08:04:28;;;;;;;7.20;3.95;;;;;;;;;;20996377;28;20067;-62
2023/01/23 08:14:30;;;;;;;7.90;3.88;;;;;;;;;;20996556;28;20126;-61
2023/01/23 08:24:36;;;;;;;6.43;3.70;;;;;;;;;;20995560;28;20050;-61
2023/01/23 08:34:38;;;;;;;6.25;3.00;;;;;;;;;;20995575;28;20408;-61
2023/01/23 08:44:41;;;;;;;7.95;3.03;;;;;;;;;;20994352;28;20088;-62
2023/01/23 08:54:43;;;;;;;5.05;2.47;;;;;;;;;;20994169;28;20044;-61
2023/01/23 09:04:45;;;;;;;10.90;5.70;;;;;;;;;;21009647;28;20056;-61
2023/01/23 09:14:48;;;;;;;8.25;2.33;;;;;;;;;;21009857;28;20048;-63
2023/01/23 09:24:50;;;;;;;6.25;3.00;;;;;;;;;;21007687;28;20047;-64
2023/01/23 09:34:53;;;;;;;10.68;3.80;;;;;;;;;;21007194;28;20093;-63
2023/01/23 09:45:05;;;;;;;9.75;4.20;;;;;;;;;;21005761;28;20143;-58
2023/01/23 09:55:18;;;;;;;9.55;3.95;;;;;;;;;;21005130;28;20045;-60
2023/01/23 10:05:25;;;;;;;10.02;4.15;;;;;;;;;;21005630;28;20444;-60
2023/01/23 10:15:37;;;;;;;8.57;3.58;;;;;;;;;;21003424;28;20049;-59
2023/01/23 10:25:40;;;;;;;6.00;3.20;;;;;;;;;;21003466;28;20048;-60
2023/01/23 10:35:52;;;;;;;4.95;2.35;;;;;;;;;;21003679;28;20048;-59
2023/01/23 10:45:54;;;;;;;5.55;1.85;;;;;;;;;;21000897;28;20059;-62
2023/01/23 10:55:59;;;;;;;4.22;1.83;;;;;;;;;;21000920;28;20051;-60
2023/01/23 11:06:02;;;;;;;5.30;2.55;;;;;;;;;;20998158;28;20144;-60
2023/01/23 11:16:04;;;;;;;7.28;2.08;;;;;;;;;;20999261;28;20051;-60
2023/01/23 11:26:27;;;;;;;4.30;1.80;;;;;;;;;;20999142;28;20480;-60
2023/01/23 11:36:29;;;;;;;8.38;2.20;;;;;;;;;;20997470;28;20400;-60
2023/01/23 11:46:34;;;;;;;7.32;2.30;;;;;;;;;;20996560;28;20139;-63
2023/01/23 11:56:54;;;;;;;3.17;1.70;;;;;;;;;;20995839;28;20056;-62
2023/01/23 12:07:06;;;;;;;4.72;2.00;;;;;;;;;;20995296;28;20056;-61
2023/01/23 12:17:14;;;;;;;7.63;2.35;;;;;;;;;;20994765;28;20052;-62
2023/01/23 12:27:27;;;;;;;7.93;2.40;;;;;;;;;;20995126;28;20066;-61
2023/01/23 12:37:29;;;;;;;4.43;2.20;;;;;;;;;;21007881;28;20049;-61
2023/01/23 12:47:34;;;;;;;7.32;2.05;;;;;;;;;;21011721;28;20098;-61
2023/01/23 12:57:42;;;;;;;5.15;2.10;;;;;;;;;;21011454;28;20052;-63
2023/01/23 13:07:50;;;;;;;4.55;1.90;;;;;;;;;;21009394;28;20436;-61
2023/01/23 13:17:52;;;;;;;5.60;1.80;;;;;;;;;;21009992;28;20489;-62
2023/01/23 13:27:57;;;;;;;7.25;1.90;;;;;;;;;;21007198;28;20132;-66
2023/01/23 13:37:59;;;;;;;5.97;2.30;;;;;;;;;;21007557;28;20052;-62
2023/01/23 13:58:40;;;;;;;6.60;2.20;;;;;;;;;;21006159;28;20049;-63
2023/01/23 14:09:03;;;;;;;9.02;3.08;;;;;;;;;;21005196;28;20113;-63
2023/01/23 14:19:17;;;;;;;4.32;1.88;;;;;;;;;;21004999;28;20040;-67
2023/01/23 14:29:21;;;;;;;4.22;1.83;;;;;;;;;;21003942;28;20055;-68
2023/01/23 14:39:26;;;;;;;1.52;0.55;;;;;;;;;;21001996;28;20078;-63
2023/01/23 14:49:33;;;;;;;4.43;0.50;;;;;;;;;;21001950;28;20055;-61
2023/01/23 14:59:38;;;;;;;1.13;0.55;;;;;;;;;;21001446;28;20082;-61
2023/01/23 15:09:40;;;;;;;2.45;0.73;;;;;;;;;;21000749;28;20044;-67
2023/01/23 15:19:42;;;;;;;2.83;0.68;;;;;;;;;;20999414;28;20045;-65
2023/01/23 15:29:44;;;;;;;1.73;0.70;;;;;;;;;;20999428;28;20044;-62
2023/01/23 15:39:45;;;;;;;4.53;0.80;;;;;;;;;;20998310;28;20469;-69
2023/01/23 15:49:46;;;;;;;1.77;0.88;;;;;;;;;;20997882;28;20456;-69
2023/01/23 15:59:48;;;;;;;1.98;0.80;;;;;;;;;;20997210;28;20454;-66
2023/01/23 16:09:53;;;;;;;2.70;0.93;;;;;;;;;;20996385;28;20150;-68
2023/01/23 16:19:56;;;;;;;1.88;0.80;;;;;;;;;;20996727;28;20455;-69
2023/01/23 16:29:58;;;;;;;2.38;1.00;;;;;;;;;;20995785;28;20470;-67
2023/01/23 16:40:00;;;;;;;2.97;0.70;;;;;;;;;;20994788;28;20570;-60
2023/01/23 16:50:02;;;;;;;2.97;0.80;;;;;;;;;;20995191;28;20562;-60
2023/01/23 17:00:05;;;;;;;4.05;1.17;;;;;;;;;;20994672;28;20044;-61
2023/01/23 17:10:08;;;;;;;1.23;0.80;;;;;;;;;;20994596;28;20056;-62
2023/01/23 17:20:12;;;;;;;1.63;0.80;;;;;;;;;;21000396;28;20052;-61
2023/01/23 17:30:15;;;;;;;2.78;0.85;;;;;;;;;;20996076;28;20099;-62
2023/01/23 17:40:18;;;;;;;1.73;0.70;;;;;;;;;;20963305;28;20475;-68
2023/01/23 17:50:26;;;;;;;0.82;0.57;;;;;;;;;;20933685;28;20049;-63
2023/01/23 18:00:28;;;;;;;1.58;0.80;;;;;;;;;;20922763;28;20048;-63
2023/01/23 18:10:32;;;;;;;3.13;0.70;;;;;;;;;;20921305;28;20136;-63
2023/01/23 18:20:34;;;;;;;1.40;0.60;;;;;;;;;;20928082;28;20074;-62
2023/01/23 18:30:53;;;;;;;2.78;1.00;;;;;;;;;;20975983;28;20053;-66
2023/01/23 18:40:55;;;;;;;2.47;0.88;;;;;;;;;;20973888;28;20144;-63
2023/01/23 18:51:07;;;;;;;2.05;0.75;;;;;;;;;;20999563;28;20385;-64
2023/01/23 19:01:24;;;;;;;2.63;0.50;;;;;;;;;;20978405;28;20070;-77
2023/01/23 19:11:35;;;;;;;1.50;0.80;;;;;;;;;;20985464;28;20053;-69
2023/01/23 19:21:36;;;;;;;0.80;0.50;;;;;;;;;;20988058;28;20052;-64
2023/01/23 19:31:39;;;;;;;2.92;0.60;;;;;;;;;;20951082;28;20153;-63
2023/01/23 19:41:41;;;;;;;1.15;0.57;;;;;;;;;;20930919;28;20055;-61
2023/01/23 19:51:42;;;;;;;10.05;1.10;;;;;;;;;;20943615;28;20098;-65
2023/01/23 20:01:47;;;;;;;2.25;0.50;;;;;;;;;;20981159;28;20044;-64
2023/01/23 20:11:51;;;;;;;1.08;0.50;;;;;;;;;;20995885;28;20048;-62
2023/01/23 20:21:54;;;;;;;1.65;0.73;;;;;;;;;;20995208;28;20055;-61
2023/01/23 20:31:56;;;;;;;1.13;0.60;;;;;;;;;;20994637;28;20055;-64
2023/01/23 20:41:58;;;;;;;1.83;0.63;;;;;;;;;;20993427;28;20052;-63
2023/01/23 21:02:25;;;;;;;2.83;0.77;;;;;;;;;;21008549;28;20048;-64
2023/01/23 21:12:27;;;;;;;1.52;0.73;;;;;;;;;;21008325;28;20401;-63
2023/01/23 21:22:30;;;;;;;1.23;0.50;;;;;;;;;;21008729;28;20098;-63
2023/01/23 21:32:32;;;;;;;1.00;0.45;;;;;;;;;;21007291;28;20052;-65
2023/01/23 21:42:35;;;;;;;1.90;0.98;;;;;;;;;;21006217;28;20117;-63
2023/01/23 21:52:37;;;;;;;3.25;1.17;;;;;;;;;;21005450;28;20060;-63
2023/01/23 22:02:38;;;;;;;2.13;1.02;;;;;;;;;;21003664;28;20052;-65
2023/01/23 22:12:41;;;;;;;3.33;0.93;;;;;;;;;;21004661;28;20063;-64
2023/01/23 22:22:43;;;;;;;2.05;0.68;;;;;;;;;;21004203;28;20041;-67
2023/01/23 22:32:45;;;;;;;2.00;0.82;;;;;;;;;;21002372;28;20052;-65
2023/01/23 22:42:47;;;;;;;1.30;0.68;;;;;;;;;;20999817;28;20101;-63
2023/01/23 22:52:50;;;;;;;1.98;0.50;;;;;;;;;;20999965;28;20139;-62
2023/01/23 23:02:52;;;;;;;1.58;0.60;;;;;;;;;;21000147;28;20048;-64
2023/01/23 23:12:54;;;;;;;1.50;0.80;;;;;;;;;;20999442;28;20088;-64
2023/01/23 23:22:56;;;;;;;1.48;0.65;;;;;;;;;;21000637;28;20048;-64
2023/01/23 23:33:00;;;;;;;3.17;0.98;;;;;;;;;;21005000;28;20506;-65
2023/01/23 23:43:08;;;;;;;1.33;0.70;;;;;;;;;;20998387;28;20454;-65
2023/01/23 23:53:30;;;;;;;1.50;0.85;;;;;;;;;;20996282;28;20060;-63
